createdAt,value
2019-04-29T00:01:06.270Z,7.50
2019-04-29T00:03:34.120Z,8.47
2019-04-29T00:06:01.012Z,7.47
2019-04-29T00:08:28.984Z,7.37
2019-04-29T00:10:55.876Z,7.77
2019-04-29T00:13:23.079Z,7.27
2019-04-29T00:16:07.944Z,7.37
2019-04-29T00:18:49.696Z,6.97
2019-04-29T00:21:23.540Z,6.90
2019-04-29T00:24:03.282Z,6.53
2019-04-29T00:26:25.213Z,7.67
2019-04-29T00:28:52.034Z,6.97
2019-04-29T00:31:18.984Z,7.57
2019-04-29T00:33:45.789Z,6.83
2019-04-29T00:36:13.085Z,7.23
2019-04-29T00:39:00.737Z,6.10
2019-04-29T00:41:45.817Z,7.40
2019-04-29T00:44:14.385Z,6.93
2019-04-29T00:46:41.279Z,6.03
2019-04-29T00:49:08.135Z,5.77
2019-04-29T00:51:36.150Z,5.40
2019-04-29T00:54:12.249Z,6.83
2019-04-29T00:56:42.193Z,7.27
2019-04-29T00:59:09.054Z,6.63
2019-04-29T01:01:37.165Z,6.70
2019-04-29T01:04:03.999Z,6.67
2019-04-29T01:06:30.879Z,6.73
2019-04-29T01:08:58.845Z,6.80
2019-04-29T01:11:26.938Z,5.87
2019-04-29T01:13:53.874Z,6.23
2019-04-29T01:16:22.997Z,6.10
2019-04-29T01:18:50.179Z,6.37
2019-04-29T01:21:17.982Z,7.07
2019-04-29T01:23:45.863Z,8.20
2019-04-29T01:26:35.430Z,7.50
2019-04-29T01:29:03.297Z,7.43
2019-04-29T01:31:34.264Z,7.83
2019-04-29T01:34:10.477Z,7.37
2019-04-29T01:36:44.631Z,8.10
2019-04-29T01:39:12.072Z,6.40
2019-04-29T01:42:00.728Z,7.23
2019-04-29T01:44:29.280Z,7.53
2019-04-29T01:46:56.143Z,7.00
2019-04-29T01:49:23.344Z,7.57
2019-04-29T01:51:54.131Z,7.27
2019-04-29T01:54:22.200Z,5.90
2019-04-29T01:56:49.052Z,6.77
2019-04-29T01:59:17.876Z,7.10
2019-04-29T02:01:45.708Z,6.40
2019-04-29T02:04:13.611Z,6.57
2019-04-29T02:06:48.752Z,7.20
2019-04-29T02:09:31.126Z,5.37
2019-04-29T02:11:59.181Z,6.83
2019-04-29T02:14:26.009Z,6.53
2019-04-29T02:16:58.782Z,6.20
2019-04-29T02:19:31.841Z,6.43
2019-04-29T02:22:12.528Z,6.37
2019-04-29T02:25:01.505Z,6.13
2019-04-29T02:27:34.520Z,6.03
2019-04-29T02:30:01.865Z,6.33
2019-04-29T02:32:28.865Z,6.27
2019-04-29T02:34:55.652Z,6.67
2019-04-29T02:37:29.624Z,6.90
2019-04-29T02:40:08.807Z,7.10
2019-04-29T02:42:51.188Z,6.43
2019-04-29T02:45:21.938Z,6.37
2019-04-29T02:47:48.932Z,6.63
2019-04-29T02:50:15.846Z,6.43
2019-04-29T02:52:42.718Z,7.33
2019-04-29T02:55:12.607Z,6.40
2019-04-29T02:57:44.754Z,8.17
2019-04-29T03:00:24.633Z,7.47
2019-04-29T03:03:01.196Z,8.03
2019-04-29T03:05:40.141Z,8.47
2019-04-29T03:08:07.976Z,7.50
2019-04-29T03:10:36.831Z,7.40
2019-04-29T03:13:07.834Z,7.13
2019-04-29T03:15:39.549Z,7.50
2019-04-29T03:18:08.366Z,6.63
2019-04-29T03:20:53.788Z,8.17
2019-04-29T03:23:21.617Z,7.43
2019-04-29T03:25:48.522Z,7.83
2019-04-29T03:28:15.423Z,8.53
2019-04-29T03:30:42.297Z,7.23
2019-04-29T03:33:10.111Z,6.80
2019-04-29T03:35:37.170Z,6.73
2019-04-29T03:38:04.242Z,8.00
2019-04-29T03:40:31.118Z,6.80
2019-04-29T03:42:58.985Z,5.67
2019-04-29T03:45:26.881Z,7.30
2019-04-29T03:47:53.700Z,6.90
2019-04-29T03:50:20.812Z,7.87
2019-04-29T03:52:56.559Z,7.10
2019-04-29T03:55:38.292Z,7.17
2019-04-29T03:58:08.994Z,6.47
2019-04-29T04:00:36.077Z,7.60
2019-04-29T04:03:27.895Z,7.83
2019-04-29T04:06:02.393Z,6.80
2019-04-29T04:08:41.717Z,6.63
2019-04-29T04:11:08.561Z,6.10
2019-04-29T04:13:35.489Z,6.83
2019-04-29T04:16:21.711Z,6.67
2019-04-29T04:18:48.592Z,6.40
2019-04-29T04:21:15.455Z,6.33
2019-04-29T04:23:43.291Z,6.90
2019-04-29T04:26:11.081Z,7.93
2019-04-29T04:28:38.891Z,7.47
2019-04-29T04:31:06.938Z,6.47
2019-04-29T04:33:35.239Z,6.93
2019-04-29T04:36:02.285Z,6.27
2019-04-29T04:38:36.365Z,7.20
2019-04-29T04:41:05.791Z,5.67
2019-04-29T04:43:33.629Z,5.37
2019-04-29T04:46:14.948Z,7.27
2019-04-29T04:48:42.890Z,6.13
2019-04-29T04:51:10.696Z,6.43
2019-04-29T04:53:38.509Z,6.27
2019-04-29T04:56:10.348Z,8.37
2019-04-29T04:58:43.152Z,6.90
2019-04-29T05:01:09.973Z,6.27
2019-04-29T05:03:36.832Z,5.90
2019-04-29T05:06:03.677Z,6.17
2019-04-29T05:08:30.538Z,7.00
2019-04-29T05:10:59.363Z,6.40
2019-04-29T05:13:28.291Z,6.73
2019-04-29T05:15:54.939Z,7.37
2019-04-29T05:18:21.815Z,6.50
2019-04-29T05:20:48.577Z,7.03
2019-04-29T05:23:15.459Z,9.70
2019-04-29T05:25:45.265Z,10.43
2019-04-29T05:28:12.160Z,8.23
2019-04-29T05:30:39.250Z,7.83
2019-04-29T05:33:06.134Z,7.60
2019-04-29T05:36:02.087Z,7.27
2019-04-29T05:38:31.629Z,8.43
2019-04-29T05:40:59.899Z,9.80
2019-04-29T05:43:36.651Z,11.37
2019-04-29T05:46:12.588Z,9.17
2019-04-29T05:48:43.123Z,9.10
2019-04-29T05:51:29.320Z,65.27
2019-04-29T05:53:57.566Z,294.40
2019-04-29T05:56:25.466Z,249.67
2019-04-29T05:58:53.315Z,240.40
2019-04-29T06:01:27.740Z,194.17
2019-04-29T06:03:54.658Z,103.93
2019-04-29T06:06:23.484Z,80.30
2019-04-29T06:08:56.384Z,46.43
2019-04-29T06:11:23.526Z,30.40
2019-04-29T06:13:50.663Z,27.03
2019-04-29T06:16:23.618Z,23.20
2019-04-29T06:18:59.761Z,15.50
2019-04-29T06:21:20.428Z,18.43
2019-04-29T06:23:47.407Z,17.77
2019-04-29T06:26:57.896Z,13.87
2019-04-29T06:29:30.781Z,12.47
2019-04-29T06:31:57.613Z,12.53
2019-04-29T06:34:25.044Z,24.97
2019-04-29T06:36:52.969Z,22.43
2019-04-29T06:39:20.874Z,18.23
2019-04-29T06:41:47.851Z,13.07
2019-04-29T06:44:17.451Z,10.93
2019-04-29T06:46:44.799Z,10.50
2019-04-29T06:49:14.767Z,9.23
2019-04-29T06:51:41.674Z,9.10
2019-04-29T06:54:13.500Z,8.80
2019-04-29T06:56:45.134Z,8.77
2019-04-29T06:59:33.389Z,8.97
2019-04-29T07:02:01.864Z,10.03
2019-04-29T07:04:37.014Z,11.13
2019-04-29T07:07:00.872Z,12.00
2019-04-29T07:09:28.037Z,11.77
2019-04-29T07:12:01.590Z,11.63
2019-04-29T07:14:28.348Z,10.87
2019-04-29T07:16:56.452Z,11.27
2019-04-29T07:19:26.636Z,11.90
2019-04-29T07:21:54.975Z,13.57
2019-04-29T07:24:23.118Z,12.80
2019-04-29T07:26:51.244Z,12.87
2019-04-29T07:29:20.503Z,13.53
2019-04-29T07:31:51.067Z,12.90
2019-04-29T07:34:20.705Z,12.53
2019-04-29T07:36:47.576Z,12.30
2019-04-29T07:39:18.801Z,12.27
2019-04-29T07:41:49.602Z,12.80
2019-04-29T07:44:18.402Z,12.33
2019-04-29T07:46:59.130Z,12.13
2019-04-29T07:49:23.740Z,13.07
2019-04-29T07:51:50.973Z,12.13
2019-04-29T07:54:18.925Z,11.33
2019-04-29T07:56:51.568Z,10.60
2019-04-29T07:59:26.393Z,10.30
2019-04-29T08:01:55.774Z,9.43
2019-04-29T08:04:22.199Z,10.57
2019-04-29T08:06:50.053Z,8.33
2019-04-29T08:09:17.876Z,8.50
2019-04-29T08:11:44.694Z,8.37
2019-04-29T08:14:11.589Z,8.83
2019-04-29T08:16:47.475Z,8.63
2019-04-29T08:19:14.379Z,7.80
2019-04-29T08:21:45.365Z,7.70
2019-04-29T08:24:11.555Z,8.80
2019-04-29T08:26:47.477Z,8.37
2019-04-29T08:29:11.446Z,8.03
2019-04-29T08:31:41.445Z,7.40
2019-04-29T08:34:09.577Z,8.67
2019-04-29T08:36:36.842Z,8.00
2019-04-29T08:39:08.685Z,7.60
2019-04-29T08:41:33.909Z,7.77
2019-04-29T08:44:20.416Z,6.97
2019-04-29T08:46:52.924Z,7.43
2019-04-29T08:49:20.186Z,7.50
2019-04-29T08:51:47.023Z,7.23
2019-04-29T08:54:16.038Z,7.30
2019-04-29T08:57:01.825Z,6.70
2019-04-29T08:59:14.402Z,7.03
2019-04-29T09:01:41.233Z,7.57
2019-04-29T09:04:08.073Z,7.50
2019-04-29T09:06:36.173Z,8.03
2019-04-29T09:09:04.971Z,7.73
2019-04-29T09:11:33.330Z,7.63
2019-04-29T09:14:00.427Z,7.37
2019-04-29T09:16:27.428Z,7.83
2019-04-29T09:18:55.819Z,7.27
2019-04-29T09:22:02.420Z,7.30
2019-04-29T09:24:31.925Z,7.43
2019-04-29T09:27:09.599Z,7.17
2019-04-29T09:29:41.194Z,7.80
2019-04-29T09:32:08.266Z,7.67
2019-04-29T09:34:35.165Z,7.97
2019-04-29T09:37:05.780Z,7.83
2019-04-29T09:39:44.432Z,8.10
2019-04-29T09:42:25.715Z,8.23
2019-04-29T09:45:04.484Z,8.70
2019-04-29T09:48:05.968Z,8.97
2019-04-29T09:50:34.194Z,8.70
2019-04-29T09:53:10.129Z,8.70
2019-04-29T09:55:40.060Z,8.60
2019-04-29T10:04:12.132Z,8.90
2019-04-29T10:06:41.519Z,8.20
2019-04-29T10:09:10.003Z,8.07
2019-04-29T10:11:37.433Z,7.90
2019-04-29T10:14:04.899Z,7.43
2019-04-29T10:16:46.739Z,6.23
2019-04-29T10:19:28.900Z,6.17
2019-04-29T10:21:56.389Z,5.87
2019-04-29T10:24:39.011Z,5.93
2019-04-29T10:32:24.217Z,5.93
2019-04-29T10:34:54.460Z,4.97
2019-04-29T10:37:31.395Z,5.53
2019-04-29T10:40:14.121Z,5.40
2019-04-29T10:43:05.120Z,4.83
2019-04-29T10:45:41.734Z,5.60
2019-04-29T10:48:20.189Z,4.83
2019-04-29T10:50:52.064Z,5.30
2019-04-29T10:53:17.399Z,4.80
2019-04-29T10:55:45.304Z,4.97
2019-04-29T10:58:13.207Z,5.60
2019-04-29T11:01:32.266Z,5.30
2019-04-29T11:04:00.759Z,4.70
2019-04-29T11:06:31.446Z,4.20
2019-04-29T11:09:09.639Z,4.50
2019-04-29T11:11:36.364Z,4.23
2019-04-29T11:14:03.722Z,4.63
2019-04-29T11:16:46.080Z,4.03
2019-04-29T11:19:05.070Z,3.40
2019-04-29T11:21:31.310Z,3.87
2019-04-29T11:24:08.946Z,3.27
2019-04-29T11:26:44.920Z,2.90
2019-04-29T11:29:12.594Z,2.80
2019-04-29T11:31:40.261Z,2.47
2019-04-29T11:34:37.008Z,3.63
2019-04-29T11:37:06.308Z,3.33
2019-04-29T11:39:34.102Z,3.53
2019-04-29T11:42:01.758Z,3.80
2019-04-29T11:44:31.751Z,4.10
2019-04-29T11:46:58.854Z,4.40
2019-04-29T11:49:43.475Z,4.40
2019-04-29T11:52:12.041Z,4.40
2019-04-29T11:54:39.546Z,4.17
2019-04-29T11:57:09.277Z,4.07
2019-04-29T12:00:02.434Z,4.20
2019-04-29T12:02:45.773Z,4.60
2019-04-29T12:05:19.086Z,4.60
2019-04-29T12:07:47.009Z,5.10
2019-04-29T12:10:14.540Z,4.07
2019-04-29T12:12:43.664Z,4.10
2019-04-29T12:15:30.036Z,5.03
2019-04-29T12:18:06.110Z,4.80
2019-04-29T12:20:53.362Z,4.70
2019-04-29T12:23:21.033Z,4.47
2019-04-29T12:25:51.555Z,4.50
2019-04-29T12:28:19.784Z,4.17
2019-04-29T12:30:49.382Z,3.93
2019-04-29T12:33:23.529Z,3.83
2019-04-29T12:36:10.838Z,4.30
2019-04-29T12:38:56.024Z,3.53
2019-04-29T12:41:52.742Z,3.70
2019-04-29T12:44:35.023Z,3.53
2019-04-29T12:46:57.112Z,3.87
2019-04-29T12:49:25.569Z,3.50
2019-04-29T12:51:53.277Z,3.67
2019-04-29T12:54:20.969Z,3.43
2019-04-29T12:56:51.138Z,3.37
2019-04-29T12:59:19.109Z,3.07
2019-04-29T13:01:59.227Z,3.27
2019-04-29T13:04:52.583Z,3.00
2019-04-29T13:07:38.471Z,2.73
2019-04-29T13:10:21.563Z,3.23
2019-04-29T13:12:51.472Z,3.20
2019-04-29T13:15:43.849Z,3.20
2019-04-29T13:18:23.302Z,2.93
2019-04-29T13:20:52.209Z,3.50
2019-04-29T13:23:33.672Z,3.60
2019-04-29T13:25:56.130Z,3.20
2019-04-29T13:28:29.836Z,3.50
2019-04-29T13:30:56.885Z,3.20
2019-04-29T13:33:22.831Z,3.27
2019-04-29T13:35:50.972Z,3.00
2019-04-29T13:38:19.522Z,3.10
2019-04-29T13:40:48.803Z,3.03
2019-04-29T13:43:20.759Z,2.70
2019-04-29T13:45:53.568Z,3.00
2019-04-29T13:48:55.195Z,3.10
2019-04-29T13:51:33.999Z,2.97
2019-04-29T13:53:46.733Z,2.83
2019-04-29T13:56:32.647Z,3.00
2019-04-29T13:58:43.596Z,3.20
2019-04-29T14:01:33.252Z,2.80
2019-04-29T14:04:24.249Z,3.10
2019-04-29T14:06:57.213Z,2.60
2019-04-29T14:09:19.777Z,3.37
2019-04-29T14:12:01.102Z,2.60
2019-04-29T14:14:18.021Z,3.50
2019-04-29T14:16:47.600Z,3.00
2019-04-29T14:19:20.487Z,2.80
2019-04-29T14:21:48.191Z,2.80
2019-04-29T14:24:17.231Z,2.73
2019-04-29T14:26:47.946Z,2.80
2019-04-29T14:29:16.501Z,2.90
2019-04-29T14:31:45.776Z,2.80
2019-04-29T14:34:22.571Z,2.77
2019-04-29T14:36:50.304Z,2.60
2019-04-29T14:39:35.965Z,2.60
2019-04-29T14:41:55.423Z,2.57
2019-04-29T14:44:56.010Z,2.40
2019-04-29T14:47:49.427Z,2.40
2019-04-29T14:50:20.369Z,2.47
2019-04-29T14:52:49.469Z,2.80
2019-04-29T14:55:20.123Z,2.73
2019-04-29T14:57:44.962Z,3.07
2019-04-29T15:00:22.768Z,3.10
2019-04-29T15:02:51.206Z,2.87
2019-04-29T15:05:18.716Z,3.60
2019-04-29T15:07:46.133Z,3.60
2019-04-29T15:10:14.653Z,3.27
2019-04-29T15:12:51.974Z,4.07
2019-04-29T15:15:41.440Z,3.70
2019-04-29T15:18:45.817Z,4.13
2019-04-29T15:21:31.024Z,3.80
2019-04-29T15:23:48.175Z,4.30
2019-04-29T15:26:15.692Z,3.93
2019-04-29T15:28:50.453Z,4.03
2019-04-29T15:31:19.628Z,3.47
2019-04-29T15:33:47.905Z,4.10
2019-04-29T15:36:15.178Z,3.90
2019-04-29T15:43:49.153Z,3.80
2019-04-29T15:46:20.455Z,3.80
2019-04-29T15:48:47.928Z,4.40
2019-04-29T15:51:15.433Z,4.57
2019-04-29T15:53:43.201Z,4.23
2019-04-29T15:56:27.825Z,4.07
2019-04-29T15:58:41.302Z,4.10
2019-04-29T16:01:16.789Z,3.80
2019-04-29T16:03:40.122Z,4.00
2019-04-29T16:06:41.427Z,4.10
2019-04-29T16:09:30.373Z,4.27
2019-04-29T16:12:23.976Z,3.90
2019-04-29T16:14:52.505Z,4.00
2019-04-29T16:17:20.856Z,3.70
2019-04-29T16:19:51.776Z,4.40
2019-04-29T16:22:20.436Z,4.10
2019-04-29T16:24:49.616Z,5.00
2019-04-29T16:27:17.979Z,4.80
2019-04-29T16:29:46.310Z,4.80
2019-04-29T16:32:24.757Z,4.70
2019-04-29T16:34:52.216Z,4.80
2019-04-29T16:37:24.920Z,5.00
2019-04-29T16:39:52.905Z,4.90
2019-04-29T16:42:39.341Z,4.83
2019-04-29T16:45:11.944Z,4.87
2019-04-29T16:47:36.861Z,5.07
2019-04-29T16:50:06.062Z,5.10
2019-04-29T16:52:35.216Z,5.53
2019-04-29T16:55:04.131Z,4.70
2019-04-29T16:57:32.234Z,5.23
2019-04-29T17:00:00.656Z,5.93
2019-04-29T17:02:28.427Z,5.23
2019-04-29T17:04:55.748Z,5.03
2019-04-29T17:07:26.970Z,4.93
2019-04-29T17:10:05.690Z,5.57
2019-04-29T17:12:42.937Z,5.33
2019-04-29T17:15:24.082Z,5.30
2019-04-29T17:17:41.394Z,5.07
2019-04-29T17:20:10.363Z,5.27
2019-04-29T17:22:43.369Z,5.23
2019-04-29T17:25:11.218Z,5.20
2019-04-29T17:28:02.796Z,5.10
2019-04-29T17:30:49.602Z,4.90
2019-04-29T17:33:37.738Z,4.80
2019-04-29T17:36:07.638Z,5.20
2019-04-29T17:38:37.508Z,5.47
2019-04-29T17:41:04.928Z,4.80
2019-04-29T17:43:54.931Z,5.57
2019-04-29T17:46:36.602Z,4.97
2019-04-29T17:49:14.545Z,5.47
2019-04-29T17:51:45.764Z,5.20
2019-04-29T17:54:20.009Z,5.10
2019-04-29T17:57:27.894Z,5.27
2019-04-29T18:00:08.421Z,5.50
2019-04-29T18:03:00.884Z,4.63
2019-04-29T18:05:52.121Z,4.70
2019-04-29T18:08:26.578Z,4.20
2019-04-29T18:10:59.763Z,3.97
2019-04-29T18:13:26.492Z,4.27
2019-04-29T18:16:01.507Z,3.47
2019-04-29T18:18:46.085Z,3.70
2019-04-29T18:21:45.633Z,3.60
2019-04-29T18:24:35.851Z,3.43
2019-04-29T18:27:06.063Z,3.50
2019-04-29T18:29:41.615Z,3.30
2019-04-29T18:32:07.920Z,3.57
2019-04-29T18:34:37.422Z,3.80
2019-04-29T18:37:07.131Z,3.80
2019-04-29T18:39:34.851Z,4.10
2019-04-29T18:42:03.309Z,4.30
2019-04-29T18:44:32.812Z,4.50
2019-04-29T18:47:00.797Z,4.43
2019-04-29T18:49:28.346Z,4.97
2019-04-29T18:51:57.941Z,5.17
2019-04-29T18:54:26.965Z,5.30
2019-04-29T18:56:55.976Z,5.53
2019-04-29T18:59:32.581Z,5.87
2019-04-29T19:01:54.886Z,5.07
2019-04-29T19:04:32.332Z,5.60
2019-04-29T19:07:02.396Z,4.77
2019-04-29T19:09:32.235Z,5.80
2019-04-29T19:12:00.284Z,5.33
2019-04-29T19:14:28.358Z,5.57
2019-04-29T19:17:00.123Z,5.60
2019-04-29T19:19:25.356Z,5.00
2019-04-29T19:21:55.772Z,5.60
2019-04-29T19:24:23.435Z,5.20
2019-04-29T19:26:55.622Z,5.40
2019-04-29T19:29:20.376Z,5.23
2019-04-29T19:31:49.865Z,4.80
2019-04-29T19:34:18.660Z,5.00
2019-04-29T19:36:46.242Z,4.90
2019-04-29T19:39:17.003Z,4.73
2019-04-29T19:41:49.366Z,4.53
2019-04-29T19:44:15.412Z,4.43
2019-04-29T19:46:42.685Z,4.03
2019-04-29T19:49:12.186Z,4.20
2019-04-29T19:51:43.675Z,4.20
2019-04-29T19:54:09.312Z,4.03
2019-04-29T19:56:36.947Z,3.97
2019-04-29T19:59:11.840Z,4.13
2019-04-29T20:01:34.478Z,4.53
2019-04-29T20:04:30.007Z,3.87
2019-04-29T20:07:08.963Z,4.00
2019-04-29T20:09:40.922Z,3.53
2019-04-29T20:12:13.329Z,3.77
2019-04-29T20:14:40.975Z,3.53
2019-04-29T20:17:47.944Z,3.97
2019-04-29T20:20:36.911Z,3.87
2019-04-29T20:23:03.271Z,3.73
2019-04-29T20:25:38.603Z,3.60
2019-04-29T20:28:08.879Z,3.73
2019-04-29T20:30:35.938Z,3.50
2019-04-29T20:33:11.329Z,3.43
2019-04-29T20:35:35.759Z,3.30
2019-04-29T20:38:09.828Z,3.77
2019-04-29T20:40:42.914Z,3.10
2019-04-29T20:43:08.406Z,3.40
2019-04-29T20:45:37.123Z,3.30
2019-04-29T20:48:06.607Z,3.47
2019-04-29T20:50:35.606Z,3.20
2019-04-29T20:53:25.652Z,3.97
2019-04-29T20:55:55.239Z,4.30
2019-04-29T20:58:31.434Z,3.97
2019-04-29T21:00:58.264Z,3.83
2019-04-29T21:03:29.848Z,4.70
2019-04-29T21:06:02.200Z,4.73
2019-04-29T21:08:25.869Z,5.10
2019-04-29T21:10:55.571Z,4.80
2019-04-29T21:13:48.768Z,5.23
2019-04-29T21:16:22.725Z,4.90
2019-04-29T21:18:56.780Z,5.00
2019-04-29T21:21:26.864Z,5.00
2019-04-29T21:23:55.250Z,4.57
2019-04-29T21:26:26.091Z,4.77
2019-04-29T21:28:53.331Z,4.87
2019-04-29T21:31:21.313Z,4.37
2019-04-29T21:33:50.740Z,5.00
2019-04-29T21:36:47.480Z,4.67
2019-04-29T21:39:46.647Z,4.67
2019-04-29T21:42:35.452Z,4.63
2019-04-29T21:45:08.727Z,4.47
2019-04-29T21:47:44.321Z,4.20
2019-04-29T21:50:05.910Z,3.90
2019-04-29T21:52:36.038Z,4.30
2019-04-29T21:55:05.253Z,4.10
2019-04-29T21:57:32.812Z,4.60
2019-04-29T22:00:00.543Z,3.90
2019-04-29T22:02:28.195Z,3.80
2019-04-29T22:04:55.765Z,4.03
2019-04-29T22:07:23.459Z,3.53
2019-04-29T22:09:50.987Z,3.30
2019-04-29T22:12:20.199Z,3.90
2019-04-29T22:14:53.003Z,3.57
2019-04-29T22:17:19.838Z,3.27
2019-04-29T22:19:48.485Z,3.60
2019-04-29T22:22:16.749Z,3.87
2019-04-29T22:24:45.811Z,3.90
2019-04-29T22:27:16.238Z,4.37
2019-04-29T22:29:45.394Z,4.07
2019-04-29T22:32:19.049Z,4.13
2019-04-29T22:34:45.179Z,4.03
2019-04-29T22:37:13.275Z,4.40
2019-04-29T22:39:41.689Z,5.03
2019-04-29T22:42:18.424Z,4.93
2019-04-29T22:44:46.366Z,4.60
2019-04-29T22:47:17.391Z,4.90
2019-04-29T22:49:44.497Z,4.57
2019-04-29T22:52:14.009Z,4.57
2019-04-29T22:54:41.548Z,4.50
2019-04-29T22:57:13.400Z,5.80
2019-04-29T22:59:40.846Z,5.53
2019-04-29T23:02:08.623Z,4.80
2019-04-29T23:04:36.176Z,4.90
2019-04-29T23:07:03.856Z,4.50
2019-04-29T23:09:31.514Z,5.00
2019-04-29T23:11:58.895Z,5.10
2019-04-29T23:14:26.549Z,4.03
2019-04-29T23:16:56.389Z,4.93
2019-04-29T23:19:25.814Z,4.77
2019-04-29T23:22:22.112Z,4.57
2019-04-29T23:25:10.643Z,4.63
2019-04-29T23:27:48.409Z,5.00
2019-04-29T23:30:19.214Z,4.73
2019-04-29T23:32:47.648Z,4.60
2019-04-29T23:35:15.078Z,4.77
2019-04-29T23:37:42.599Z,6.00
2019-04-29T23:40:10.023Z,5.50
2019-04-29T23:42:37.937Z,5.17
2019-04-29T23:45:05.821Z,4.57
2019-04-29T23:47:35.715Z,4.87
2019-04-29T23:50:04.448Z,4.93
2019-04-29T23:52:31.969Z,4.87
2019-04-29T23:55:07.753Z,5.13
2019-04-29T23:57:55.517Z,4.93
